OMSJOISL

Guest
Details From OMSJ - SHARJAH INTL
To OISL - LAR
Flight Number -
Tags generated
Created
Modified
Stats Distance 154 nm / 285 km
Max Altitude 14,600 ft / 4,450 m
Waypoints 3
Social Downloads 0
Likes 0
Share VATSIM

Download

Looking for another format? Having issues loading an existing format? Contact us
Advertisement - Login to hide

Notes

Basic altitude profile: - Ascent Rate: 2500ft/min - Ascent Speed: 250kts - Cruise Altitude: 35000ft - Cruise Speed: 420kts - Descent Rate: 1500ft/min - Descent Speed: 250kts Options: - Use NATs: yes - Use PACOTS: yes - Use low airways: yes - Use high airways: yes

Route

OMSJ LEN OISL

ID Type Via Altitude Latitude Longitude Leg Dist Tot Dist Heading (true) Name
O OMSJ APT - 0 ft / 0 m 25.32859˚ 55.51722˚ - 0 nm - SHARJAH INTL
LEN VOR - 14,600 ft / 4,450 m 26.53614˚ 54.85117˚ 80 nm 80 nm 334° / 333° BANDAR LENGEH VOR-DME
O OISL APT - 0 ft / 0 m 27.67472˚ 54.38328˚ 72 nm 153 nm 340° / 340° LAR

Altitude Profile

Advertisement - Login to hide

OMSJ

Details ICAO OMSJ (SHJ)
Name SHARJAH INTL
Region United Arab Emirates
Timezone Asia/Dubai (UTC+4.0)
Stats Elevation 111 ft / 34 m (AMSL)
Location 25.328587° 55.517218°
Runways 1
Magnetic Variation 2.044° E

METAR

OMSJ 110000Z 14003KT CAVOK 15/06 Q1019

Decode

TAF

TAF OMSJ 102257Z 1100/1206 16005KT CAVOK BECMG 1106/1108 28010KT BECMG 1115/1117 19005KT PROB30 1122/1204 4000 HZ BECMG 1204/1206 28013KT

Decode

Departure Runways

ID Width Length Bearing (true) Bearing (mag) Surface Threshold Offset Overrun Length
12 148 ft / 45 m 13,266 ft / 4,043 m 122.45° 120.41° Asphalt 689 ft / 210 m 488 ft / 149 m
30 148 ft / 45 m 13,266 ft / 4,043 m 302.47° 300.43° Asphalt 984 ft / 300 m 488 ft / 149 m

OISL

Details ICAO OISL (LRR)
Name LAR
Region Iran
Timezone Asia/Tehran (UTC+3.5)
Stats Elevation 2,641 ft / 805 m (AMSL)
Location 27.674725° 54.383278°
Runways 1
Magnetic Variation 2.603° E

METAR

OISL 102350Z 27006KT CAVOK 06/M05 Q1019

Decode

TAF

TAF OISL 102300Z 1100/1206 26003MPS CAVOK

Decode

Destination Runways

ID Width Length Bearing (true) Bearing (mag) Surface Threshold Offset Overrun Length
09 148 ft / 45 m 10,317 ft / 3,145 m 89.10° 86.50° Asphalt 0 ft / 0 m 190 ft / 58 m
27 148 ft / 45 m 10,317 ft / 3,145 m 269.12° 266.52° Asphalt 0 ft / 0 m 190 ft / 58 m